Delta Junction, AK (99737)

8:19 PM AKST on December 04, 2016 (GMT -0900)
Allen Army Air Field | | Change Station

Elev 1306 ft 63.99 °N, 145.72 °W | Updated 26 minutes ago

Partly Cloudy
Partly Cloudy
-27 °F
Feels Like -39 °F
N
4
Wind Variable Wind from South

Today
High -- | Low -- °F
--% Chance of Precip.
Yesterday
High -- | Low -- °F
Precip. -- in
Pressure 30.80 in
Visibility 10.0 miles
Clouds Few 15000 ft
Windchill -39 °F
Dew Point -31 °F
Humidity 81%
Rainfall 0.00 in
Snow Depth Not available.
10:09 AM 2:57 PM
Waxing Crescent, 28% visible
METAR PABI 050453Z 19003KT 10SM FEW150 M33/M35 A3056 RMK AO2 SLP430 T13281350
Pressure 30.80 in
Visibility 10.0 miles
Clouds Few 15000 ft
Windchill -39 °F
Dew Point -31 °F
Humidity 81%
Rainfall 0.00 in
Snow Depth Not available.
10:09 AM 2:57 PM
Waxing Crescent, 28% visible
METAR PABI 050453Z 19003KT 10SM FEW150 M33/M35 A3056 RMK AO2 SLP430 T13281350

10-Day Weather Forecast

Almanac

Astronomy

Dec. 04, 2016 Rise Set
Actual Time
Civil Twilight
Nautical Twilight
Astronomical Twilight
Moon
Length of Visible Light
Length of Day
Tomorrow will be .
, % of the Moon is Illuminated

Today's Extremes

State Highs State Lows

Community

WunderPhotos

Upload Photos

1,955,765 photos uploaded!

WunderBlog® & News

Nearby

Air Quality

  Air Quality AQ Index Pollutant
Not available.

Snow Depth

Station Depth Elevation

Earthquake Activity

City Distance Mag. Time & Date
Minimum magnitude displayed is 2.5.

Coastal Water Temperatures

Place Temperature

Stations

Nearby Weather Stations

Station Location Temp. Windchill Dew Point Humidity Wind Precip. Elev Updated Type
                   

Watches & Warnings

There are currently no watches in effect.